X  Luk Metar data     EKYT Aalborg Airport
Temperatur
54°F Temperatur
39°F Dugpunkt
58% Fugtighed



Vind
12 MPT
19 KM/T
5 M/S
10 KNOB



80°
Ø
Nuværende forhold

Delvis skyet Delvis skyet
Tryk 1022.92 (hPa) - 30.21 (inHg)
Sigt 6.2 (mil) - 10 (km)
Lufthavn
Lufthavnskode EKYT

Lokation: Aalborg Airport
Afstand: 54 (mi)

Metar:
EKYT 170620Z AUTO 08010KT 9999 FEW230/// 12/04 Q1023

Tid: 17-05-2022 08:20 CEST